Terminal Aerodrome Forecast
Issued by NWS

Home | Current Version | Previous Version | Text Only | Print | Product List | Glossary On
Versions: 1 2 3 4 5 6 7 8 9 10 11 12 13
000
FTUS43 KLSX 121724
TAFSUS
TAF
KSUS 121724Z 1218/1318 31010G17KT P6SM FEW250
     FM122300 29005KT P6SM FEW250
     FM130500 23004KT P6SM FEW200
     FM131200 20006KT P6SM FEW080 WS012/24040KT
     FM131600 24010G19KT P6SM SCT250=

USA.gov is the U.S. government's official web portal to all federal, state and local government web resources and services.